sensor_id;sensor_type;location;lat;lon;timestamp;P1;durP1;ratioP1;P2;durP2;ratioP2
64682;SDS011;51107;47.652;19.016;2022-12-07T00:01:44;7.12;;;1.92;;
64682;SDS011;51107;47.652;19.016;2022-12-07T00:04:15;1.17;;;1.02;;
64682;SDS011;51107;47.652;19.016;2022-12-07T00:06:45;2.53;;;1.55;;
64682;SDS011;51107;47.652;19.016;2022-12-07T00:09:18;1.40;;;1.05;;
64682;SDS011;51107;47.652;19.016;2022-12-07T00:11:50;2.10;;;1.37;;
64682;SDS011;51107;47.652;19.016;2022-12-07T00:14:19;1.20;;;0.98;;
64682;SDS011;51107;47.652;19.016;2022-12-07T00:16:49;2.37;;;1.85;;
64682;SDS011;51107;47.652;19.016;2022-12-07T00:19:19;4.03;;;1.83;;
64682;SDS011;51107;47.652;19.016;2022-12-07T00:21:47;4.57;;;1.45;;
64682;SDS011;51107;47.652;19.016;2022-12-07T00:24:15;1.35;;;1.17;;
64682;SDS011;51107;47.652;19.016;2022-12-07T00:26:44;1.73;;;1.12;;
64682;SDS011;51107;47.652;19.016;2022-12-07T00:29:15;3.08;;;0.95;;
64682;SDS011;51107;47.652;19.016;2022-12-07T00:31:50;5.22;;;1.50;;
64682;SDS011;51107;47.652;19.016;2022-12-07T00:34:19;2.25;;;1.40;;
64682;SDS011;51107;47.652;19.016;2022-12-07T00:36:48;2.58;;;1.92;;
64682;SDS011;51107;47.652;19.016;2022-12-07T00:39:17;2.62;;;1.42;;
64682;SDS011;51107;47.652;19.016;2022-12-07T00:41:45;5.00;;;2.28;;
64682;SDS011;51107;47.652;19.016;2022-12-07T00:44:14;3.20;;;1.37;;
64682;SDS011;51107;47.652;19.016;2022-12-07T00:46:42;4.07;;;2.00;;
64682;SDS011;51107;47.652;19.016;2022-12-07T00:49:13;4.55;;;1.73;;
64682;SDS011;51107;47.652;19.016;2022-12-07T00:51:41;4.25;;;1.25;;
64682;SDS011;51107;47.652;19.016;2022-12-07T00:54:09;3.22;;;2.22;;
64682;SDS011;51107;47.652;19.016;2022-12-07T00:56:38;2.65;;;1.30;;
64682;SDS011;51107;47.652;19.016;2022-12-07T00:59:06;2.08;;;1.33;;
64682;SDS011;51107;47.652;19.016;2022-12-07T01:01:35;1.90;;;1.52;;
64682;SDS011;51107;47.652;19.016;2022-12-07T01:04:04;3.33;;;1.75;;
64682;SDS011;51107;47.652;19.016;2022-12-07T01:06:33;1.08;;;0.85;;
64682;SDS011;51107;47.652;19.016;2022-12-07T01:09:02;1.65;;;1.55;;
64682;SDS011;51107;47.652;19.016;2022-12-07T01:11:31;2.20;;;1.30;;
64682;SDS011;51107;47.652;19.016;2022-12-07T01:14:00;4.00;;;1.80;;
64682;SDS011;51107;47.652;19.016;2022-12-07T01:16:29;1.67;;;1.17;;
64682;SDS011;51107;47.652;19.016;2022-12-07T01:18:58;2.33;;;1.98;;
64682;SDS011;51107;47.652;19.016;2022-12-07T01:21:29;2.95;;;2.17;;
64682;SDS011;51107;47.652;19.016;2022-12-07T01:24:03;2.25;;;1.20;;
64682;SDS011;51107;47.652;19.016;2022-12-07T01:26:33;3.03;;;1.30;;
64682;SDS011;51107;47.652;19.016;2022-12-07T01:29:01;1.62;;;1.05;;
64682;SDS011;51107;47.652;19.016;2022-12-07T01:31:30;2.17;;;1.20;;
64682;SDS011;51107;47.652;19.016;2022-12-07T01:33:59;2.12;;;1.30;;
64682;SDS011;51107;47.652;19.016;2022-12-07T01:36:31;3.53;;;1.50;;
64682;SDS011;51107;47.652;19.016;2022-12-07T01:39:03;3.67;;;1.30;;
64682;SDS011;51107;47.652;19.016;2022-12-07T01:41:34;2.97;;;1.62;;
64682;SDS011;51107;47.652;19.016;2022-12-07T01:46:53;1.73;;;0.98;;
64682;SDS011;51107;47.652;19.016;2022-12-07T01:52:03;1.25;;;1.05;;
64682;SDS011;51107;47.652;19.016;2022-12-07T01:55:04;1.15;;;1.00;;
64682;SDS011;51107;47.652;19.016;2022-12-07T01:57:36;2.05;;;1.27;;
64682;SDS011;51107;47.652;19.016;2022-12-07T02:00:09;2.12;;;1.50;;
64682;SDS011;51107;47.652;19.016;2022-12-07T02:02:42;1.17;;;1.08;;
64682;SDS011;51107;47.652;19.016;2022-12-07T02:05:15;1.08;;;0.93;;
64682;SDS011;51107;47.652;19.016;2022-12-07T02:07:45;1.73;;;0.98;;
64682;SDS011;51107;47.652;19.016;2022-12-07T02:10:15;1.83;;;1.25;;
64682;SDS011;51107;47.652;19.016;2022-12-07T02:12:52;1.85;;;0.85;;
64682;SDS011;51107;47.652;19.016;2022-12-07T02:15:28;2.20;;;1.45;;
64682;SDS011;51107;47.652;19.016;2022-12-07T02:18:14;2.17;;;1.12;;
64682;SDS011;51107;47.652;19.016;2022-12-07T02:26:23;2.83;;;1.23;;
64682;SDS011;51107;47.652;19.016;2022-12-07T02:31:35;1.20;;;0.93;;
64682;SDS011;51107;47.652;19.016;2022-12-07T02:34:09;1.25;;;0.85;;
64682;SDS011;51107;47.652;19.016;2022-12-07T02:36:50;1.08;;;0.82;;
64682;SDS011;51107;47.652;19.016;2022-12-07T02:39:28;1.55;;;1.20;;
64682;SDS011;51107;47.652;19.016;2022-12-07T02:42:07;0.70;;;0.60;;
64682;SDS011;51107;47.652;19.016;2022-12-07T02:44:51;1.37;;;1.27;;
64682;SDS011;51107;47.652;19.016;2022-12-07T02:47:20;1.35;;;1.02;;
64682;SDS011;51107;47.652;19.016;2022-12-07T02:49:51;0.80;;;0.80;;
64682;SDS011;51107;47.652;19.016;2022-12-07T02:52:20;3.75;;;1.30;;
64682;SDS011;51107;47.652;19.016;2022-12-07T02:54:48;1.67;;;1.25;;
64682;SDS011;51107;47.652;19.016;2022-12-07T02:57:40;1.87;;;1.52;;
64682;SDS011;51107;47.652;19.016;2022-12-07T03:00:19;0.75;;;0.75;;
64682;SDS011;51107;47.652;19.016;2022-12-07T03:02:58;3.92;;;1.42;;
64682;SDS011;51107;47.652;19.016;2022-12-07T03:05:42;2.62;;;1.48;;
64682;SDS011;51107;47.652;19.016;2022-12-07T03:11:00;2.03;;;1.10;;
64682;SDS011;51107;47.652;19.016;2022-12-07T03:16:27;1.55;;;0.85;;
64682;SDS011;51107;47.652;19.016;2022-12-07T03:19:09;5.00;;;1.45;;
64682;SDS011;51107;47.652;19.016;2022-12-07T03:21:46;1.52;;;1.23;;
64682;SDS011;51107;47.652;19.016;2022-12-07T03:24:19;1.00;;;0.95;;
64682;SDS011;51107;47.652;19.016;2022-12-07T03:26:52;3.67;;;1.10;;
64682;SDS011;51107;47.652;19.016;2022-12-07T03:29:28;1.17;;;0.88;;
64682;SDS011;51107;47.652;19.016;2022-12-07T03:32:10;1.98;;;1.35;;
64682;SDS011;51107;47.652;19.016;2022-12-07T03:34:56;1.62;;;1.20;;
64682;SDS011;51107;47.652;19.016;2022-12-07T03:37:33;4.07;;;1.40;;
64682;SDS011;51107;47.652;19.016;2022-12-07T03:40:17;2.37;;;1.23;;
64682;SDS011;51107;47.652;19.016;2022-12-07T03:45:21;3.85;;;1.62;;
64682;SDS011;51107;47.652;19.016;2022-12-07T03:53:22;6.72;;;3.25;;
64682;SDS011;51107;47.652;19.016;2022-12-07T03:55:58;1.52;;;1.30;;
64682;SDS011;51107;47.652;19.016;2022-12-07T03:58:27;2.40;;;1.50;;
64682;SDS011;51107;47.652;19.016;2022-12-07T04:00:57;3.87;;;1.50;;
64682;SDS011;51107;47.652;19.016;2022-12-07T04:03:26;3.40;;;1.90;;
64682;SDS011;51107;47.652;19.016;2022-12-07T04:05:54;6.50;;;3.08;;
64682;SDS011;51107;47.652;19.016;2022-12-07T04:08:22;3.95;;;2.20;;
64682;SDS011;51107;47.652;19.016;2022-12-07T04:10:51;2.60;;;1.80;;
64682;SDS011;51107;47.652;19.016;2022-12-07T04:13:19;4.32;;;1.98;;
64682;SDS011;51107;47.652;19.016;2022-12-07T04:15:47;7.60;;;3.50;;
64682;SDS011;51107;47.652;19.016;2022-12-07T04:18:16;7.30;;;3.92;;
64682;SDS011;51107;47.652;19.016;2022-12-07T04:20:45;4.55;;;2.65;;
64682;SDS011;51107;47.652;19.016;2022-12-07T04:23:14;4.87;;;2.47;;
64682;SDS011;51107;47.652;19.016;2022-12-07T04:25:42;6.10;;;2.58;;
64682;SDS011;51107;47.652;19.016;2022-12-07T04:28:10;7.97;;;3.05;;
64682;SDS011;51107;47.652;19.016;2022-12-07T04:30:39;5.07;;;2.50;;
64682;SDS011;51107;47.652;19.016;2022-12-07T04:33:07;2.17;;;1.45;;
64682;SDS011;51107;47.652;19.016;2022-12-07T04:35:36;4.60;;;2.58;;
64682;SDS011;51107;47.652;19.016;2022-12-07T04:38:05;5.80;;;2.92;;
64682;SDS011;51107;47.652;19.016;2022-12-07T04:40:34;5.30;;;2.12;;
64682;SDS011;51107;47.652;19.016;2022-12-07T04:43:02;7.43;;;3.47;;
64682;SDS011;51107;47.652;19.016;2022-12-07T04:45:32;2.83;;;1.65;;
64682;SDS011;51107;47.652;19.016;2022-12-07T04:48:00;3.72;;;2.17;;
64682;SDS011;51107;47.652;19.016;2022-12-07T04:50:29;2.78;;;1.58;;
64682;SDS011;51107;47.652;19.016;2022-12-07T04:52:57;3.17;;;1.40;;
64682;SDS011;51107;47.652;19.016;2022-12-07T04:55:25;2.75;;;1.20;;
64682;SDS011;51107;47.652;19.016;2022-12-07T04:57:54;2.60;;;1.87;;
64682;SDS011;51107;47.652;19.016;2022-12-07T05:00:22;1.75;;;1.60;;
64682;SDS011;51107;47.652;19.016;2022-12-07T05:02:50;2.00;;;1.50;;
64682;SDS011;51107;47.652;19.016;2022-12-07T05:05:19;2.60;;;1.75;;
64682;SDS011;51107;47.652;19.016;2022-12-07T05:07:47;1.27;;;0.95;;
64682;SDS011;51107;47.652;19.016;2022-12-07T05:10:15;2.78;;;1.00;;
64682;SDS011;51107;47.652;19.016;2022-12-07T05:12:44;2.08;;;1.23;;
64682;SDS011;51107;47.652;19.016;2022-12-07T05:15:14;1.73;;;1.27;;
64682;SDS011;51107;47.652;19.016;2022-12-07T05:17:43;1.58;;;1.23;;
64682;SDS011;51107;47.652;19.016;2022-12-07T05:20:15;1.85;;;1.67;;
64682;SDS011;51107;47.652;19.016;2022-12-07T05:22:43;1.35;;;0.80;;
64682;SDS011;51107;47.652;19.016;2022-12-07T05:25:11;3.10;;;1.55;;
64682;SDS011;51107;47.652;19.016;2022-12-07T05:27:39;4.05;;;1.27;;
64682;SDS011;51107;47.652;19.016;2022-12-07T05:30:08;2.72;;;1.62;;
64682;SDS011;51107;47.652;19.016;2022-12-07T05:32:37;3.90;;;1.92;;
64682;SDS011;51107;47.652;19.016;2022-12-07T05:35:05;2.83;;;1.58;;
64682;SDS011;51107;47.652;19.016;2022-12-07T05:37:34;2.08;;;1.58;;
64682;SDS011;51107;47.652;19.016;2022-12-07T05:40:03;1.98;;;1.50;;
64682;SDS011;51107;47.652;19.016;2022-12-07T05:42:32;1.83;;;1.30;;
64682;SDS011;51107;47.652;19.016;2022-12-07T05:45:00;1.45;;;1.15;;
64682;SDS011;51107;47.652;19.016;2022-12-07T05:47:29;1.37;;;1.27;;
64682;SDS011;51107;47.652;19.016;2022-12-07T05:49:57;2.03;;;1.20;;
64682;SDS011;51107;47.652;19.016;2022-12-07T05:52:26;0.93;;;0.73;;
64682;SDS011;51107;47.652;19.016;2022-12-07T05:54:54;3.22;;;1.70;;
64682;SDS011;51107;47.652;19.016;2022-12-07T05:57:22;2.33;;;0.77;;
64682;SDS011;51107;47.652;19.016;2022-12-07T05:59:50;2.58;;;1.80;;
64682;SDS011;51107;47.652;19.016;2022-12-07T06:02:19;1.33;;;0.93;;
64682;SDS011;51107;47.652;19.016;2022-12-07T06:04:47;1.67;;;1.12;;
64682;SDS011;51107;47.652;19.016;2022-12-07T06:07:16;2.25;;;1.17;;
64682;SDS011;51107;47.652;19.016;2022-12-07T06:09:46;1.60;;;1.50;;
64682;SDS011;51107;47.652;19.016;2022-12-07T06:12:15;3.37;;;1.83;;
64682;SDS011;51107;47.652;19.016;2022-12-07T06:15:01;4.37;;;1.70;;
64682;SDS011;51107;47.652;19.016;2022-12-07T06:17:30;3.45;;;2.00;;
64682;SDS011;51107;47.652;19.016;2022-12-07T06:19:58;3.28;;;1.70;;
64682;SDS011;51107;47.652;19.016;2022-12-07T06:22:27;4.87;;;1.92;;
64682;SDS011;51107;47.652;19.016;2022-12-07T06:24:55;2.83;;;2.12;;
64682;SDS011;51107;47.652;19.016;2022-12-07T06:27:23;1.67;;;1.23;;
64682;SDS011;51107;47.652;19.016;2022-12-07T06:29:51;2.60;;;1.60;;
64682;SDS011;51107;47.652;19.016;2022-12-07T06:32:20;2.35;;;1.27;;
64682;SDS011;51107;47.652;19.016;2022-12-07T06:34:48;1.83;;;1.25;;
64682;SDS011;51107;47.652;19.016;2022-12-07T06:37:16;2.85;;;1.50;;
64682;SDS011;51107;47.652;19.016;2022-12-07T06:39:45;2.83;;;1.55;;
64682;SDS011;51107;47.652;19.016;2022-12-07T06:42:13;4.35;;;1.40;;
64682;SDS011;51107;47.652;19.016;2022-12-07T06:44:41;2.97;;;2.12;;
64682;SDS011;51107;47.652;19.016;2022-12-07T06:47:10;2.70;;;1.37;;
64682;SDS011;51107;47.652;19.016;2022-12-07T06:49:58;1.42;;;1.33;;
64682;SDS011;51107;47.652;19.016;2022-12-07T06:52:28;3.05;;;1.75;;
64682;SDS011;51107;47.652;19.016;2022-12-07T06:54:56;2.05;;;1.77;;
64682;SDS011;51107;47.652;19.016;2022-12-07T06:57:25;1.98;;;1.42;;
64682;SDS011;51107;47.652;19.016;2022-12-07T06:59:54;2.35;;;1.92;;
64682;SDS011;51107;47.652;19.016;2022-12-07T07:02:22;3.72;;;1.98;;
64682;SDS011;51107;47.652;19.016;2022-12-07T12:02:15;2.55;;;1.62;;
64682;SDS011;51107;47.652;19.016;2022-12-07T12:05:24;2.47;;;1.73;;
64682;SDS011;51107;47.652;19.016;2022-12-07T12:08:23;1.77;;;1.60;;
64682;SDS011;51107;47.652;19.016;2022-12-07T12:21:46;2.47;;;1.55;;
64682;SDS011;51107;47.652;19.016;2022-12-07T12:24:45;2.50;;;1.65;;
64682;SDS011;51107;47.652;19.016;2022-12-07T12:28:01;4.95;;;2.62;;
64682;SDS011;51107;47.652;19.016;2022-12-07T12:31:06;2.33;;;1.60;;
64682;SDS011;51107;47.652;19.016;2022-12-07T12:40:40;3.33;;;1.58;;
64682;SDS011;51107;47.652;19.016;2022-12-07T12:43:43;1.70;;;1.05;;
64682;SDS011;51107;47.652;19.016;2022-12-07T12:47:02;4.35;;;2.25;;
64682;SDS011;51107;47.652;19.016;2022-12-07T12:53:36;1.95;;;1.48;;
64682;SDS011;51107;47.652;19.016;2022-12-07T12:56:33;2.50;;;1.50;;
64682;SDS011;51107;47.652;19.016;2022-12-07T13:02:52;2.62;;;1.45;;
64682;SDS011;51107;47.652;19.016;2022-12-07T13:09:21;3.08;;;1.98;;
64682;SDS011;51107;47.652;19.016;2022-12-07T13:12:32;3.12;;;2.22;;
64682;SDS011;51107;47.652;19.016;2022-12-07T13:18:55;2.80;;;1.85;;
64682;SDS011;51107;47.652;19.016;2022-12-07T13:21:46;1.42;;;1.10;;
64682;SDS011;51107;47.652;19.016;2022-12-07T13:24:54;2.45;;;1.15;;
64682;SDS011;51107;47.652;19.016;2022-12-07T13:28:02;1.52;;;0.85;;
64682;SDS011;51107;47.652;19.016;2022-12-07T13:34:47;1.67;;;0.98;;
64682;SDS011;51107;47.652;19.016;2022-12-07T13:37:42;4.60;;;2.45;;
64682;SDS011;51107;47.652;19.016;2022-12-07T13:41:02;0.93;;;0.82;;
64682;SDS011;51107;47.652;19.016;2022-12-07T13:50:34;3.92;;;1.55;;
64682;SDS011;51107;47.652;19.016;2022-12-07T13:53:45;3.28;;;1.15;;
64682;SDS011;51107;47.652;19.016;2022-12-07T13:56:37;4.93;;;2.10;;
64682;SDS011;51107;47.652;19.016;2022-12-07T13:59:42;2.37;;;1.45;;
64682;SDS011;51107;47.652;19.016;2022-12-07T14:02:54;5.32;;;1.77;;
64682;SDS011;51107;47.652;19.016;2022-12-07T14:06:13;2.97;;;1.67;;
64682;SDS011;51107;47.652;19.016;2022-12-07T14:12:26;2.12;;;1.37;;
64682;SDS011;51107;47.652;19.016;2022-12-07T14:15:33;2.33;;;1.52;;
64682;SDS011;51107;47.652;19.016;2022-12-07T14:18:38;1.75;;;1.48;;
64682;SDS011;51107;47.652;19.016;2022-12-07T14:21:48;2.70;;;1.00;;
64682;SDS011;51107;47.652;19.016;2022-12-07T14:25:21;4.65;;;2.60;;
64682;SDS011;51107;47.652;19.016;2022-12-07T14:28:34;2.65;;;1.45;;
64682;SDS011;51107;47.652;19.016;2022-12-07T14:31:40;1.33;;;1.08;;
64682;SDS011;51107;47.652;19.016;2022-12-07T14:34:57;2.87;;;1.58;;
64682;SDS011;51107;47.652;19.016;2022-12-07T14:37:52;3.10;;;1.95;;
64682;SDS011;51107;47.652;19.016;2022-12-07T14:41:10;5.40;;;1.87;;
64682;SDS011;51107;47.652;19.016;2022-12-07T14:44:26;6.70;;;2.60;;
64682;SDS011;51107;47.652;19.016;2022-12-07T14:47:34;3.67;;;2.35;;
64682;SDS011;51107;47.652;19.016;2022-12-07T14:50:29;1.73;;;1.35;;
64682;SDS011;51107;47.652;19.016;2022-12-07T14:53:46;5.05;;;2.67;;
64682;SDS011;51107;47.652;19.016;2022-12-07T14:56:53;9.02;;;1.60;;
64682;SDS011;51107;47.652;19.016;2022-12-07T15:03:29;2.50;;;1.58;;
64682;SDS011;51107;47.652;19.016;2022-12-07T15:06:53;2.25;;;1.12;;
64682;SDS011;51107;47.652;19.016;2022-12-07T15:09:48;2.62;;;1.85;;
64682;SDS011;51107;47.652;19.016;2022-12-07T15:12:45;2.03;;;1.42;;
64682;SDS011;51107;47.652;19.016;2022-12-07T15:15:59;3.87;;;1.55;;
64682;SDS011;51107;47.652;19.016;2022-12-07T15:18:53;5.50;;;2.05;;
64682;SDS011;51107;47.652;19.016;2022-12-07T15:22:01;1.70;;;1.23;;
64682;SDS011;51107;47.652;19.016;2022-12-07T15:24:57;2.78;;;1.90;;
64682;SDS011;51107;47.652;19.016;2022-12-07T15:28:01;1.92;;;1.70;;
64682;SDS011;51107;47.652;19.016;2022-12-07T15:30:54;2.67;;;1.70;;
64682;SDS011;51107;47.652;19.016;2022-12-07T15:34:01;3.50;;;1.52;;
64682;SDS011;51107;47.652;19.016;2022-12-07T15:36:55;3.85;;;2.28;;
64682;SDS011;51107;47.652;19.016;2022-12-07T15:40:10;3.25;;;2.08;;
64682;SDS011;51107;47.652;19.016;2022-12-07T15:43:04;3.53;;;2.17;;
64682;SDS011;51107;47.652;19.016;2022-12-07T15:46:07;2.15;;;1.35;;
64682;SDS011;51107;47.652;19.016;2022-12-07T15:48:59;4.80;;;1.95;;
64682;SDS011;51107;47.652;19.016;2022-12-07T15:51:53;4.68;;;2.45;;
64682;SDS011;51107;47.652;19.016;2022-12-07T15:54:57;3.70;;;1.98;;
64682;SDS011;51107;47.652;19.016;2022-12-07T15:57:47;3.40;;;2.03;;
64682;SDS011;51107;47.652;19.016;2022-12-07T16:00:52;3.25;;;1.70;;
64682;SDS011;51107;47.652;19.016;2022-12-07T16:04:00;3.33;;;1.77;;
64682;SDS011;51107;47.652;19.016;2022-12-07T16:06:53;5.62;;;3.03;;
64682;SDS011;51107;47.652;19.016;2022-12-07T16:10:01;3.33;;;2.05;;
64682;SDS011;51107;47.652;19.016;2022-12-07T16:12:52;2.67;;;1.92;;
64682;SDS011;51107;47.652;19.016;2022-12-07T16:15:55;3.50;;;1.92;;
64682;SDS011;51107;47.652;19.016;2022-12-07T16:18:49;3.20;;;2.05;;
64682;SDS011;51107;47.652;19.016;2022-12-07T16:25:05;11.75;;;6.30;;
64682;SDS011;51107;47.652;19.016;2022-12-07T16:28:13;34.40;;;15.15;;
64682;SDS011;51107;47.652;19.016;2022-12-07T16:31:23;47.22;;;19.98;;
64682;SDS011;51107;47.652;19.016;2022-12-07T16:34:32;22.23;;;11.68;;
64682;SDS011;51107;47.652;19.016;2022-12-07T16:37:26;19.58;;;10.30;;
64682;SDS011;51107;47.652;19.016;2022-12-07T16:40:30;15.98;;;7.07;;
64682;SDS011;51107;47.652;19.016;2022-12-07T16:43:20;10.02;;;4.95;;
64682;SDS011;51107;47.652;19.016;2022-12-07T16:46:24;14.32;;;7.00;;
64682;SDS011;51107;47.652;19.016;2022-12-07T16:49:15;14.35;;;6.00;;
64682;SDS011;51107;47.652;19.016;2022-12-07T16:55:14;7.95;;;4.75;;
64682;SDS011;51107;47.652;19.016;2022-12-07T16:58:18;9.88;;;3.62;;
64682;SDS011;51107;47.652;19.016;2022-12-07T17:01:22;6.15;;;4.62;;
64682;SDS011;51107;47.652;19.016;2022-12-07T17:04:26;24.85;;;10.77;;
64682;SDS011;51107;47.652;19.016;2022-12-07T17:07:31;24.90;;;13.98;;
64682;SDS011;51107;47.652;19.016;2022-12-07T17:10:23;28.08;;;13.05;;
64682;SDS011;51107;47.652;19.016;2022-12-07T17:13:28;26.85;;;11.98;;
64682;SDS011;51107;47.652;19.016;2022-12-07T17:16:42;14.30;;;8.30;;
64682;SDS011;51107;47.652;19.016;2022-12-07T17:19:51;13.68;;;8.10;;
64682;SDS011;51107;47.652;19.016;2022-12-07T17:22:49;15.60;;;7.75;;
64682;SDS011;51107;47.652;19.016;2022-12-07T17:25:54;9.57;;;5.32;;
64682;SDS011;51107;47.652;19.016;2022-12-07T17:29:05;9.23;;;4.93;;
64682;SDS011;51107;47.652;19.016;2022-12-07T17:32:14;6.15;;;4.03;;
64682;SDS011;51107;47.652;19.016;2022-12-07T17:35:12;11.05;;;3.55;;
64682;SDS011;51107;47.652;19.016;2022-12-07T17:38:06;8.73;;;3.17;;
64682;SDS011;51107;47.652;19.016;2022-12-07T17:41:17;5.82;;;2.83;;
64682;SDS011;51107;47.652;19.016;2022-12-07T17:44:28;12.07;;;4.82;;
64682;SDS011;51107;47.652;19.016;2022-12-07T17:47:22;8.43;;;4.30;;
64682;SDS011;51107;47.652;19.016;2022-12-07T17:50:26;7.57;;;4.47;;
64682;SDS011;51107;47.652;19.016;2022-12-07T17:53:39;4.68;;;2.97;;
64682;SDS011;51107;47.652;19.016;2022-12-07T17:56:43;5.32;;;2.50;;
64682;SDS011;51107;47.652;19.016;2022-12-07T17:59:48;9.13;;;4.05;;
64682;SDS011;51107;47.652;19.016;2022-12-07T18:02:48;8.70;;;4.90;;
64682;SDS011;51107;47.652;19.016;2022-12-07T18:06:00;7.25;;;3.75;;
64682;SDS011;51107;47.652;19.016;2022-12-07T18:09:04;10.82;;;4.05;;
64682;SDS011;51107;47.652;19.016;2022-12-07T18:12:10;8.23;;;3.85;;
64682;SDS011;51107;47.652;19.016;2022-12-07T18:15:21;4.80;;;2.25;;
64682;SDS011;51107;47.652;19.016;2022-12-07T18:18:11;3.75;;;1.77;;
64682;SDS011;51107;47.652;19.016;2022-12-07T18:21:20;6.45;;;2.20;;
64682;SDS011;51107;47.652;19.016;2022-12-07T18:24:14;5.95;;;3.33;;
64682;SDS011;51107;47.652;19.016;2022-12-07T18:27:19;4.18;;;2.55;;
64682;SDS011;51107;47.652;19.016;2022-12-07T18:30:10;5.15;;;3.37;;
64682;SDS011;51107;47.652;19.016;2022-12-07T18:33:20;4.78;;;2.50;;
64682;SDS011;51107;47.652;19.016;2022-12-07T18:36:12;5.70;;;2.78;;
64682;SDS011;51107;47.652;19.016;2022-12-07T18:39:19;2.42;;;1.92;;
64682;SDS011;51107;47.652;19.016;2022-12-07T18:42:17;1.83;;;1.10;;
64682;SDS011;51107;47.652;19.016;2022-12-07T18:45:26;3.83;;;2.08;;
64682;SDS011;51107;47.652;19.016;2022-12-07T18:48:18;3.80;;;2.60;;
64682;SDS011;51107;47.652;19.016;2022-12-07T18:51:25;3.97;;;2.17;;
64682;SDS011;51107;47.652;19.016;2022-12-07T18:54:26;6.35;;;3.17;;
64682;SDS011;51107;47.652;19.016;2022-12-07T18:57:39;4.40;;;2.53;;
64682;SDS011;51107;47.652;19.016;2022-12-07T19:00:51;2.50;;;1.98;;
64682;SDS011;51107;47.652;19.016;2022-12-07T19:04:04;6.55;;;3.60;;
64682;SDS011;51107;47.652;19.016;2022-12-07T19:06:55;3.12;;;1.95;;
64682;SDS011;51107;47.652;19.016;2022-12-07T19:10:03;4.00;;;1.98;;
64682;SDS011;51107;47.652;19.016;2022-12-07T19:13:10;6.93;;;3.50;;
64682;SDS011;51107;47.652;19.016;2022-12-07T19:16:08;6.93;;;3.12;;
64682;SDS011;51107;47.652;19.016;2022-12-07T19:19:11;3.65;;;2.83;;
64682;SDS011;51107;47.652;19.016;2022-12-07T19:22:20;5.53;;;3.22;;
64682;SDS011;51107;47.652;19.016;2022-12-07T19:25:25;4.27;;;2.60;;
64682;SDS011;51107;47.652;19.016;2022-12-07T19:28:15;5.80;;;2.62;;
64682;SDS011;51107;47.652;19.016;2022-12-07T19:31:09;4.03;;;2.50;;
64682;SDS011;51107;47.652;19.016;2022-12-07T19:34:36;3.95;;;2.25;;
64682;SDS011;51107;47.652;19.016;2022-12-07T19:37:34;2.03;;;1.83;;
64682;SDS011;51107;47.652;19.016;2022-12-07T19:40:45;6.30;;;2.55;;
64682;SDS011;51107;47.652;19.016;2022-12-07T19:43:49;5.32;;;2.67;;
64682;SDS011;51107;47.652;19.016;2022-12-07T19:46:53;2.05;;;1.75;;
64682;SDS011;51107;47.652;19.016;2022-12-07T19:49:50;5.07;;;3.47;;
64682;SDS011;51107;47.652;19.016;2022-12-07T19:52:53;3.67;;;1.77;;
64682;SDS011;51107;47.652;19.016;2022-12-07T19:55:45;3.97;;;2.25;;
64682;SDS011;51107;47.652;19.016;2022-12-07T19:58:50;3.65;;;2.28;;
64682;SDS011;51107;47.652;19.016;2022-12-07T20:01:42;6.32;;;2.75;;
64682;SDS011;51107;47.652;19.016;2022-12-07T20:04:53;3.67;;;2.35;;
64682;SDS011;51107;47.652;19.016;2022-12-07T20:07:55;6.50;;;2.20;;
64682;SDS011;51107;47.652;19.016;2022-12-07T20:11:07;4.30;;;2.05;;
64682;SDS011;51107;47.652;19.016;2022-12-07T20:14:25;2.65;;;1.73;;
64682;SDS011;51107;47.652;19.016;2022-12-07T20:17:36;4.93;;;1.90;;
64682;SDS011;51107;47.652;19.016;2022-12-07T20:20:34;4.95;;;2.40;;
64682;SDS011;51107;47.652;19.016;2022-12-07T20:23:39;7.32;;;3.15;;
64682;SDS011;51107;47.652;19.016;2022-12-07T20:26:52;2.45;;;1.55;;
64682;SDS011;51107;47.652;19.016;2022-12-07T20:29:45;5.05;;;2.30;;
64682;SDS011;51107;47.652;19.016;2022-12-07T20:33:04;4.60;;;2.12;;
64682;SDS011;51107;47.652;19.016;2022-12-07T20:35:59;5.90;;;2.22;;
64682;SDS011;51107;47.652;19.016;2022-12-07T20:39:07;5.32;;;1.58;;
64682;SDS011;51107;47.652;19.016;2022-12-07T20:41:58;5.70;;;2.47;;
64682;SDS011;51107;47.652;19.016;2022-12-07T20:45:19;2.65;;;1.95;;
64682;SDS011;51107;47.652;19.016;2022-12-07T20:48:10;3.62;;;2.78;;
64682;SDS011;51107;47.652;19.016;2022-12-07T20:51:14;7.10;;;3.60;;
64682;SDS011;51107;47.652;19.016;2022-12-07T20:54:05;9.60;;;4.53;;
64682;SDS011;51107;47.652;19.016;2022-12-07T20:57:09;15.98;;;6.78;;
64682;SDS011;51107;47.652;19.016;2022-12-07T21:00:00;3.47;;;2.17;;
64682;SDS011;51107;47.652;19.016;2022-12-07T21:06:01;3.47;;;1.58;;
64682;SDS011;51107;47.652;19.016;2022-12-07T21:09:19;15.35;;;4.97;;
64682;SDS011;51107;47.652;19.016;2022-12-07T21:12:20;8.82;;;3.47;;
64682;SDS011;51107;47.652;19.016;2022-12-07T21:15:24;1.92;;;1.65;;
64682;SDS011;51107;47.652;19.016;2022-12-07T21:18:15;3.72;;;2.22;;
64682;SDS011;51107;47.652;19.016;2022-12-07T21:21:18;1.48;;;1.20;;
64682;SDS011;51107;47.652;19.016;2022-12-07T21:24:10;2.72;;;1.85;;
64682;SDS011;51107;47.652;19.016;2022-12-07T21:27:22;2.67;;;1.23;;
64682;SDS011;51107;47.652;19.016;2022-12-07T21:30:16;2.05;;;1.30;;
64682;SDS011;51107;47.652;19.016;2022-12-07T21:33:22;4.62;;;2.08;;
64682;SDS011;51107;47.652;19.016;2022-12-07T21:36:33;1.80;;;1.50;;
64682;SDS011;51107;47.652;19.016;2022-12-07T21:39:24;2.12;;;1.05;;
64682;SDS011;51107;47.652;19.016;2022-12-07T21:42:31;1.25;;;1.08;;
64682;SDS011;51107;47.652;19.016;2022-12-07T21:45:30;4.43;;;1.77;;
64682;SDS011;51107;47.652;19.016;2022-12-07T21:48:59;2.65;;;1.70;;
64682;SDS011;51107;47.652;19.016;2022-12-07T21:52:03;3.08;;;1.87;;
64682;SDS011;51107;47.652;19.016;2022-12-07T21:55:20;1.35;;;1.27;;
64682;SDS011;51107;47.652;19.016;2022-12-07T21:58:34;4.40;;;1.27;;
64682;SDS011;51107;47.652;19.016;2022-12-07T22:05:35;2.40;;;1.73;;
64682;SDS011;51107;47.652;19.016;2022-12-07T22:09:09;1.15;;;0.90;;
64682;SDS011;51107;47.652;19.016;2022-12-07T22:12:42;0.80;;;0.80;;
64682;SDS011;51107;47.652;19.016;2022-12-07T22:16:22;3.37;;;1.45;;
64682;SDS011;51107;47.652;19.016;2022-12-07T22:19:31;0.88;;;0.82;;
64682;SDS011;51107;47.652;19.016;2022-12-07T22:22:31;2.15;;;1.45;;
64682;SDS011;51107;47.652;19.016;2022-12-07T22:26:38;3.75;;;1.85;;
64682;SDS011;51107;47.652;19.016;2022-12-07T22:30:14;4.07;;;1.85;;
64682;SDS011;51107;47.652;19.016;2022-12-07T22:39:32;2.40;;;0.90;;
64682;SDS011;51107;47.652;19.016;2022-12-07T22:42:47;2.28;;;2.08;;
64682;SDS011;51107;47.652;19.016;2022-12-07T22:46:03;1.48;;;1.27;;
64682;SDS011;51107;47.652;19.016;2022-12-07T22:49:05;4.12;;;2.78;;
64682;SDS011;51107;47.652;19.016;2022-12-07T22:51:51;5.20;;;3.55;;
64682;SDS011;51107;47.652;19.016;2022-12-07T22:55:08;5.12;;;3.80;;
64682;SDS011;51107;47.652;19.016;2022-12-07T22:58:14;5.70;;;2.83;;
64682;SDS011;51107;47.652;19.016;2022-12-07T23:01:17;8.77;;;3.25;;
64682;SDS011;51107;47.652;19.016;2022-12-07T23:04:32;12.68;;;4.12;;
64682;SDS011;51107;47.652;19.016;2022-12-07T23:07:17;7.00;;;4.68;;
64682;SDS011;51107;47.652;19.016;2022-12-07T23:09:58;4.62;;;2.80;;
64682;SDS011;51107;47.652;19.016;2022-12-07T23:12:54;7.07;;;2.67;;
64682;SDS011;51107;47.652;19.016;2022-12-07T23:15:52;4.25;;;0.77;;
64682;SDS011;51107;47.652;19.016;2022-12-07T23:18:59;3.72;;;2.47;;